sensor_id;sensor_type;location;lat;lon;timestamp;pressure;altitude;pressure_sealevel;temperature;humidity
63556;BME280;49700;48.072;7.800;2023-04-23T00:00:51;98998.28;;;14.86;nan
63556;BME280;49700;48.072;7.800;2023-04-23T00:03:45;98997.47;;;14.86;nan
63556;BME280;49700;48.072;7.800;2023-04-23T00:06:52;98997.47;;;14.86;nan
63556;BME280;49700;48.072;7.800;2023-04-23T00:09:32;99003.72;;;14.85;nan
63556;BME280;49700;48.072;7.800;2023-04-23T00:12:36;99003.16;;;14.81;nan
63556;BME280;49700;48.072;7.800;2023-04-23T00:15:14;99002.75;;;14.76;nan
63556;BME280;49700;48.072;7.800;2023-04-23T00:18:05;99000.38;;;14.73;nan
63556;BME280;49700;48.072;7.800;2023-04-23T00:20:55;98992.03;;;14.68;nan
63556;BME280;49700;48.072;7.800;2023-04-23T00:23:47;99003.72;;;14.65;nan
63556;BME280;49700;48.072;7.800;2023-04-23T00:26:53;99008.44;;;14.62;nan
63556;BME280;49700;48.072;7.800;2023-04-23T00:29:41;98998.16;;;14.58;nan
63556;BME280;49700;48.072;7.800;2023-04-23T00:32:31;98999.94;;;14.58;nan
63556;BME280;49700;48.072;7.800;2023-04-23T00:35:21;99004.56;;;14.56;nan
63556;BME280;49700;48.072;7.800;2023-04-23T00:38:12;99001.06;;;14.55;nan
63556;BME280;49700;48.072;7.800;2023-04-23T00:41:10;99003.84;;;14.54;nan
63556;BME280;49700;48.072;7.800;2023-04-23T00:43:49;99008.31;;;14.53;nan
63556;BME280;49700;48.072;7.800;2023-04-23T00:46:48;99009.38;;;14.51;nan
63556;BME280;49700;48.072;7.800;2023-04-23T01:03:25;99026.56;;;14.16;nan
63556;BME280;49700;48.072;7.800;2023-04-23T01:06:18;99019.16;;;14.10;nan
63556;BME280;49700;48.072;7.800;2023-04-23T01:09:10;99018.59;;;14.06;nan
63556;BME280;49700;48.072;7.800;2023-04-23T01:12:30;99018.59;;;14.06;nan
63556;BME280;49700;48.072;7.800;2023-04-23T01:15:17;99026.94;;;14.02;nan
63556;BME280;49700;48.072;7.800;2023-04-23T01:18:21;99017.59;;;13.98;nan
63556;BME280;49700;48.072;7.800;2023-04-23T01:21:27;99025.78;;;13.94;nan
63556;BME280;49700;48.072;7.800;2023-04-23T01:24:29;99023.25;;;13.93;nan
63556;BME280;49700;48.072;7.800;2023-04-23T01:27:17;99018.13;;;13.91;nan
63556;BME280;49700;48.072;7.800;2023-04-23T01:30:32;99012.13;;;13.89;nan
63556;BME280;49700;48.072;7.800;2023-04-23T01:33:31;99003.78;;;13.84;nan
63556;BME280;49700;48.072;7.800;2023-04-23T01:36:18;99001.28;;;13.83;nan
63556;BME280;49700;48.072;7.800;2023-04-23T01:38:57;98997.94;;;13.81;nan
63556;BME280;49700;48.072;7.800;2023-04-23T01:41:44;98993.59;;;13.80;nan
63556;BME280;49700;48.072;7.800;2023-04-23T01:44:36;99002.66;;;13.77;nan
63556;BME280;49700;48.072;7.800;2023-04-23T01:47:25;99009.88;;;13.75;nan
63556;BME280;49700;48.072;7.800;2023-04-23T01:50:14;99003.06;;;13.72;nan
63556;BME280;49700;48.072;7.800;2023-04-23T01:53:08;98999.81;;;13.69;nan
63556;BME280;49700;48.072;7.800;2023-04-23T01:56:04;98990.25;;;13.68;nan
63556;BME280;49700;48.072;7.800;2023-04-23T01:58:51;98999.81;;;13.69;nan
63556;BME280;49700;48.072;7.800;2023-04-23T02:01:46;99011.34;;;13.68;nan
63556;BME280;49700;48.072;7.800;2023-04-23T02:04:37;99011.34;;;13.68;nan
63556;BME280;49700;48.072;7.800;2023-04-23T02:07:18;99000.94;;;13.66;nan
63556;BME280;49700;48.072;7.800;2023-04-23T02:09:56;99007.16;;;13.65;nan
63556;BME280;49700;48.072;7.800;2023-04-23T02:12:48;99002.03;;;13.64;nan
63556;BME280;49700;48.072;7.800;2023-04-23T02:15:34;99007.31;;;13.64;nan
63556;BME280;49700;48.072;7.800;2023-04-23T02:18:20;99007.16;;;13.65;nan
63556;BME280;49700;48.072;7.800;2023-04-23T02:21:09;99003.72;;;13.65;nan
63556;BME280;49700;48.072;7.800;2023-04-23T02:23:56;99001.06;;;13.65;nan
63556;BME280;49700;48.072;7.800;2023-04-23T02:26:45;99002.88;;;13.64;nan
63556;BME280;49700;48.072;7.800;2023-04-23T02:29:35;98995.91;;;13.63;nan
63556;BME280;49700;48.072;7.800;2023-04-23T02:32:30;98990.91;;;13.60;nan
63556;BME280;49700;48.072;7.800;2023-04-23T02:35:16;98995.47;;;13.58;nan
63556;BME280;49700;48.072;7.800;2023-04-23T02:37:56;98991.16;;;13.57;nan
63556;BME280;49700;48.072;7.800;2023-04-23T02:40:43;98977.25;;;13.55;nan
63556;BME280;49700;48.072;7.800;2023-04-23T02:43:28;98990.44;;;13.55;nan
63556;BME280;49700;48.072;7.800;2023-04-23T02:46:17;98982.81;;;13.52;nan
63556;BME280;49700;48.072;7.800;2023-04-23T02:49:03;98994.44;;;13.49;nan
63556;BME280;49700;48.072;7.800;2023-04-23T02:51:42;99002.78;;;13.45;nan
63556;BME280;49700;48.072;7.800;2023-04-23T02:54:28;99000.25;;;13.43;nan
63556;BME280;49700;48.072;7.800;2023-04-23T02:57:11;99003.00;;;13.42;nan
63556;BME280;49700;48.072;7.800;2023-04-23T03:00:01;99000.53;;;13.40;nan
63556;BME280;49700;48.072;7.800;2023-04-23T03:02:54;99012.19;;;13.38;nan
63556;BME280;49700;48.072;7.800;2023-04-23T03:05:40;99002.59;;;13.37;nan
63556;BME280;49700;48.072;7.800;2023-04-23T03:08:32;98994.81;;;13.35;nan
63556;BME280;49700;48.072;7.800;2023-04-23T03:11:19;98995.78;;;13.34;nan
63556;BME280;49700;48.072;7.800;2023-04-23T03:14:08;98993.81;;;13.36;nan
63556;BME280;49700;48.072;7.800;2023-04-23T03:16:49;98983.28;;;13.36;nan
63556;BME280;49700;48.072;7.800;2023-04-23T03:19:35;98994.81;;;13.35;nan
63556;BME280;49700;48.072;7.800;2023-04-23T03:22:30;98986.06;;;13.35;nan
63556;BME280;49700;48.072;7.800;2023-04-23T03:25:07;98992.16;;;13.35;nan
63556;BME280;49700;48.072;7.800;2023-04-23T03:27:53;98983.28;;;13.36;nan
63556;BME280;49700;48.072;7.800;2023-04-23T03:30:40;98970.94;;;13.37;nan
63556;BME280;49700;48.072;7.800;2023-04-23T03:33:26;98971.78;;;13.37;nan
63556;BME280;49700;48.072;7.800;2023-04-23T03:36:09;98965.53;;;13.38;nan
63556;BME280;49700;48.072;7.800;2023-04-23T03:38:56;98971.78;;;13.37;nan
63556;BME280;49700;48.072;7.800;2023-04-23T03:41:57;98976.34;;;13.35;nan
63556;BME280;49700;48.072;7.800;2023-04-23T03:44:43;98973.69;;;13.35;nan
63556;BME280;49700;48.072;7.800;2023-04-23T03:47:21;98965.06;;;13.33;nan
63556;BME280;49700;48.072;7.800;2023-04-23T03:50:02;98978.25;;;13.33;nan
63556;BME280;49700;48.072;7.800;2023-04-23T03:52:51;98966.06;;;13.32;nan
63556;BME280;49700;48.072;7.800;2023-04-23T03:55:48;98969.53;;;13.33;nan
63556;BME280;49700;48.072;7.800;2023-04-23T03:58:34;98964.25;;;13.33;nan
63556;BME280;49700;48.072;7.800;2023-04-23T04:01:21;98960.78;;;13.32;nan
63556;BME280;49700;48.072;7.800;2023-04-23T04:04:10;98964.38;;;13.31;nan
63556;BME280;49700;48.072;7.800;2023-04-23T04:06:58;98967.16;;;13.30;nan
63556;BME280;49700;48.072;7.800;2023-04-23T04:09:56;98975.88;;;13.30;nan
63556;BME280;49700;48.072;7.800;2023-04-23T04:12:37;98974.91;;;13.31;nan
63556;BME280;49700;48.072;7.800;2023-04-23T04:15:15;98971.31;;;13.32;nan
63556;BME280;49700;48.072;7.800;2023-04-23T04:17:43;98967.00;;;13.31;nan
63556;BME280;49700;48.072;7.800;2023-04-23T04:20:10;98978.53;;;13.30;nan
63556;BME280;49700;48.072;7.800;2023-04-23T04:22:38;98973.25;;;13.30;nan
63556;BME280;49700;48.072;7.800;2023-04-23T04:25:17;98977.97;;;13.26;nan
63556;BME280;49700;48.072;7.800;2023-04-23T04:27:56;98983.59;;;13.22;nan
63556;BME280;49700;48.072;7.800;2023-04-23T04:30:34;98975.38;;;13.15;nan
63556;BME280;49700;48.072;7.800;2023-04-23T04:33:00;98973.22;;;13.09;nan
63556;BME280;49700;48.072;7.800;2023-04-23T04:35:28;98966.56;;;13.05;nan
63556;BME280;49700;48.072;7.800;2023-04-23T04:37:58;98966.81;;;13.02;nan
63556;BME280;49700;48.072;7.800;2023-04-23T04:40:37;98973.03;;;13.01;nan
63556;BME280;49700;48.072;7.800;2023-04-23T04:43:05;98974.72;;;13.02;nan
63556;BME280;49700;48.072;7.800;2023-04-23T04:45:51;98977.81;;;13.07;nan
63556;BME280;49700;48.072;7.800;2023-04-23T04:48:40;98970.47;;;13.11;nan
63556;BME280;49700;48.072;7.800;2023-04-23T04:51:29;98973.69;;;13.14;nan
63556;BME280;49700;48.072;7.800;2023-04-23T04:54:05;98970.66;;;13.19;nan
63556;BME280;49700;48.072;7.800;2023-04-23T04:56:41;98972.06;;;13.23;nan
63556;BME280;49700;48.072;7.800;2023-04-23T04:59:14;98965.69;;;13.25;nan
63556;BME280;49700;48.072;7.800;2023-04-23T05:01:40;98969.91;;;13.28;nan
63556;BME280;49700;48.072;7.800;2023-04-23T05:04:26;98969.25;;;13.36;nan
63556;BME280;49700;48.072;7.800;2023-04-23T05:07:08;98974.97;;;13.41;nan
63556;BME280;49700;48.072;7.800;2023-04-23T05:09:33;98973.06;;;13.43;nan
63556;BME280;49700;48.072;7.800;2023-04-23T05:11:59;98963.31;;;13.43;nan
63556;BME280;49700;48.072;7.800;2023-04-23T05:14:46;98966.53;;;13.47;nan
63556;BME280;49700;48.072;7.800;2023-04-23T05:17:36;98964.22;;;13.54;nan
63556;BME280;49700;48.072;7.800;2023-04-23T05:20:04;98962.69;;;13.61;nan
63556;BME280;49700;48.072;7.800;2023-04-23T05:23:00;98969.00;;;13.69;nan
63556;BME280;49700;48.072;7.800;2023-04-23T05:25:46;98966.25;;;13.81;nan
63556;BME280;49700;48.072;7.800;2023-04-23T05:28:12;98964.88;;;13.86;nan
63556;BME280;49700;48.072;7.800;2023-04-23T05:30:43;98963.63;;;13.90;nan
63556;BME280;49700;48.072;7.800;2023-04-23T05:33:08;98961.69;;;13.92;nan
63556;BME280;49700;48.072;7.800;2023-04-23T05:35:56;98965.19;;;13.93;nan
63556;BME280;49700;48.072;7.800;2023-04-23T05:38:43;98970.34;;;13.94;nan
63556;BME280;49700;48.072;7.800;2023-04-23T05:41:34;98962.56;;;14.03;nan
63556;BME280;49700;48.072;7.800;2023-04-23T05:44:23;98956.34;;;14.13;nan
63556;BME280;49700;48.072;7.800;2023-04-23T05:47:03;98958.59;;;14.18;nan
63556;BME280;49700;48.072;7.800;2023-04-23T05:49:36;98948.03;;;14.18;nan
63556;BME280;49700;48.072;7.800;2023-04-23T05:52:15;98944.66;;;14.16;nan
63556;BME280;49700;48.072;7.800;2023-04-23T05:55:10;98945.38;;;14.18;nan
63556;BME280;49700;48.072;7.800;2023-04-23T05:57:55;98949.25;;;14.33;nan
63556;BME280;49700;48.072;7.800;2023-04-23T06:00:44;98955.53;;;14.52;nan
63556;BME280;49700;48.072;7.800;2023-04-23T06:03:36;98948.19;;;14.65;nan
63556;BME280;49700;48.072;7.800;2023-04-23T06:06:48;98948.47;;;14.91;nan
63556;BME280;49700;48.072;7.800;2023-04-23T06:09:42;98955.19;;;15.42;nan
63556;BME280;49700;48.072;7.800;2023-04-23T06:12:28;98955.91;;;16.00;nan
63556;BME280;49700;48.072;7.800;2023-04-23T06:15:20;98952.88;;;16.58;nan
63556;BME280;49700;48.072;7.800;2023-04-23T06:18:08;98948.19;;;17.14;nan
63556;BME280;49700;48.072;7.800;2023-04-23T06:21:10;98940.59;;;17.79;nan
63556;BME280;49700;48.072;7.800;2023-04-23T06:24:01;98944.09;;;18.47;nan
63556;BME280;49700;48.072;7.800;2023-04-23T06:26:50;98937.81;;;19.13;nan
63556;BME280;49700;48.072;7.800;2023-04-23T06:29:45;98930.50;;;19.63;nan
63556;BME280;49700;48.072;7.800;2023-04-23T06:32:55;98932.09;;;20.20;nan
63556;BME280;49700;48.072;7.800;2023-04-23T06:35:38;98924.19;;;20.58;nan
63556;BME280;49700;48.072;7.800;2023-04-23T06:38:40;98920.84;;;20.64;nan
63556;BME280;49700;48.072;7.800;2023-04-23T06:42:26;98904.03;;;20.78;nan
63556;BME280;49700;48.072;7.800;2023-04-23T06:45:37;98905.00;;;21.00;nan
63556;BME280;49700;48.072;7.800;2023-04-23T06:48:28;98903.44;;;21.06;nan
63556;BME280;49700;48.072;7.800;2023-04-23T06:51:29;98903.81;;;21.03;nan
63556;BME280;49700;48.072;7.800;2023-04-23T06:54:55;98906.19;;;20.97;nan
63556;BME280;49700;48.072;7.800;2023-04-23T07:08:58;98880.25;;;18.63;nan
63556;BME280;49700;48.072;7.800;2023-04-23T07:11:52;98883.94;;;18.70;nan
63556;BME280;49700;48.072;7.800;2023-04-23T07:14:41;98882.06;;;19.12;nan
63556;BME280;49700;48.072;7.800;2023-04-23T07:17:40;98878.06;;;19.72;nan
63556;BME280;49700;48.072;7.800;2023-04-23T07:20:47;98877.06;;;20.50;nan
63556;BME280;49700;48.072;7.800;2023-04-23T07:23:44;98867.28;;;21.18;nan
63556;BME280;49700;48.072;7.800;2023-04-23T07:26:50;98856.56;;;21.62;nan
63556;BME280;49700;48.072;7.800;2023-04-23T07:30:07;98854.06;;;22.12;nan
63556;BME280;49700;48.072;7.800;2023-04-23T07:33:11;98843.00;;;22.65;nan
63556;BME280;49700;48.072;7.800;2023-04-23T07:36:13;98839.88;;;22.89;nan
63556;BME280;49700;48.072;7.800;2023-04-23T07:39:28;98836.94;;;23.06;nan
63556;BME280;49700;48.072;7.800;2023-04-23T07:42:54;98826.38;;;23.32;nan
63556;BME280;49700;48.072;7.800;2023-04-23T07:46:12;98831.38;;;23.42;nan
63556;BME280;49700;48.072;7.800;2023-04-23T07:53:07;98817.66;;;23.17;nan
63556;BME280;49700;48.072;7.800;2023-04-23T08:00:04;98823.47;;;22.71;nan
63556;BME280;49700;48.072;7.800;2023-04-23T08:07:13;98820.41;;;22.46;nan
63556;BME280;49700;48.072;7.800;2023-04-23T08:10:50;98820.16;;;22.41;nan
63556;BME280;49700;48.072;7.800;2023-04-23T08:17:33;98816.22;;;21.94;nan
63556;BME280;49700;48.072;7.800;2023-04-23T08:24:05;98809.59;;;22.33;nan
63556;BME280;49700;48.072;7.800;2023-04-23T08:27:17;98809.09;;;22.22;nan
63556;BME280;49700;48.072;7.800;2023-04-23T08:30:36;98806.97;;;22.18;nan
63556;BME280;49700;48.072;7.800;2023-04-23T08:33:30;98805.03;;;22.26;nan
63556;BME280;49700;48.072;7.800;2023-04-23T08:36:22;98789.03;;;22.33;nan
63556;BME280;49700;48.072;7.800;2023-04-23T08:46:55;98789.78;;;21.84;nan
63556;BME280;49700;48.072;7.800;2023-04-23T08:49:53;98782.69;;;21.76;nan
63556;BME280;49700;48.072;7.800;2023-04-23T08:52:54;98776.97;;;21.58;nan
63556;BME280;49700;48.072;7.800;2023-04-23T08:55:56;98769.53;;;21.38;nan
63556;BME280;49700;48.072;7.800;2023-04-23T08:59:02;98769.94;;;21.20;nan
63556;BME280;49700;48.072;7.800;2023-04-23T09:02:00;98767.34;;;20.97;nan
63556;BME280;49700;48.072;7.800;2023-04-23T09:05:00;98763.13;;;20.88;nan
63556;BME280;49700;48.072;7.800;2023-04-23T09:07:53;98751.97;;;20.99;nan
63556;BME280;49700;48.072;7.800;2023-04-23T09:10:42;98754.44;;;21.16;nan
63556;BME280;49700;48.072;7.800;2023-04-23T09:13:32;98747.16;;;21.25;nan
63556;BME280;49700;48.072;7.800;2023-04-23T09:16:25;98737.06;;;21.20;nan
63556;BME280;49700;48.072;7.800;2023-04-23T09:19:30;98739.16;;;21.39;nan
63556;BME280;49700;48.072;7.800;2023-04-23T09:22:47;98736.31;;;21.62;nan
63556;BME280;49700;48.072;7.800;2023-04-23T09:26:09;98729.50;;;21.60;nan
63556;BME280;49700;48.072;7.800;2023-04-23T09:29:36;98725.94;;;21.53;nan
63556;BME280;49700;48.072;7.800;2023-04-23T09:36:22;98728.22;;;21.56;nan
63556;BME280;49700;48.072;7.800;2023-04-23T09:42:59;98723.06;;;21.18;nan
63556;BME280;49700;48.072;7.800;2023-04-23T09:46:00;98722.41;;;21.16;nan
63556;BME280;49700;48.072;7.800;2023-04-23T09:49:02;98705.72;;;21.14;nan
63556;BME280;49700;48.072;7.800;2023-04-23T09:52:04;98709.88;;;21.16;nan
63556;BME280;49700;48.072;7.800;2023-04-23T09:55:32;98706.91;;;21.26;nan
63556;BME280;49700;48.072;7.800;2023-04-23T09:59:14;98708.88;;;21.17;nan
63556;BME280;49700;48.072;7.800;2023-04-23T10:09:14;98684.94;;;21.88;nan
63556;BME280;49700;48.072;7.800;2023-04-23T10:12:08;98685.16;;;22.15;nan
63556;BME280;49700;48.072;7.800;2023-04-23T10:15:12;98676.38;;;22.21;nan
63556;BME280;49700;48.072;7.800;2023-04-23T10:21:26;98665.94;;;22.05;nan
63556;BME280;49700;48.072;7.800;2023-04-23T10:27:48;98658.97;;;22.32;nan
63556;BME280;49700;48.072;7.800;2023-04-23T10:30:54;98655.25;;;22.33;nan
63556;BME280;49700;48.072;7.800;2023-04-23T10:38:17;98664.22;;;22.53;nan
63556;BME280;49700;48.072;7.800;2023-04-23T10:41:21;98652.13;;;22.64;nan
63556;BME280;49700;48.072;7.800;2023-04-23T10:44:49;98652.13;;;22.64;nan
63556;BME280;49700;48.072;7.800;2023-04-23T10:47:55;98652.06;;;22.51;nan
63556;BME280;49700;48.072;7.800;2023-04-23T10:51:16;98643.78;;;22.39;nan
63556;BME280;49700;48.072;7.800;2023-04-23T10:54:49;98647.91;;;22.42;nan
63556;BME280;49700;48.072;7.800;2023-04-23T10:58:29;98646.63;;;22.38;nan
63556;BME280;49700;48.072;7.800;2023-04-23T11:11:50;98612.50;;;22.40;nan
63556;BME280;49700;48.072;7.800;2023-04-23T11:21:08;98599.63;;;22.22;nan
63556;BME280;49700;48.072;7.800;2023-04-23T11:31:20;98587.78;;;22.38;nan
63556;BME280;49700;48.072;7.800;2023-04-23T11:34:39;98572.59;;;22.45;nan
63556;BME280;49700;48.072;7.800;2023-04-23T11:38:01;98569.09;;;22.44;nan
63556;BME280;49700;48.072;7.800;2023-04-23T11:41:22;98561.28;;;22.49;nan
63556;BME280;49700;48.072;7.800;2023-04-23T11:47:38;98545.38;;;22.41;nan
63556;BME280;49700;48.072;7.800;2023-04-23T11:50:52;98545.44;;;22.48;nan
63556;BME280;49700;48.072;7.800;2023-04-23T12:04:54;98504.53;;;22.81;nan
63556;BME280;49700;48.072;7.800;2023-04-23T12:08:31;98503.31;;;22.90;nan
63556;BME280;49700;48.072;7.800;2023-04-23T12:11:38;98505.97;;;22.90;nan
63556;BME280;49700;48.072;7.800;2023-04-23T12:26:21;98479.25;;;23.36;nan
63556;BME280;49700;48.072;7.800;2023-04-23T12:29:39;98476.59;;;23.36;nan
63556;BME280;49700;48.072;7.800;2023-04-23T12:36:18;98465.03;;;23.42;nan
63556;BME280;49700;48.072;7.800;2023-04-23T12:39:33;98468.53;;;23.50;nan
63556;BME280;49700;48.072;7.800;2023-04-23T12:42:33;98467.66;;;23.62;nan
63556;BME280;49700;48.072;7.800;2023-04-23T12:45:37;98457.34;;;23.79;nan
63556;BME280;49700;48.072;7.800;2023-04-23T12:48:29;98450.09;;;23.93;nan
63556;BME280;49700;48.072;7.800;2023-04-23T12:51:49;98450.91;;;23.87;nan
63556;BME280;49700;48.072;7.800;2023-04-23T12:58:14;98443.09;;;23.79;nan
63556;BME280;49700;48.072;7.800;2023-04-23T13:01:39;98439.19;;;23.68;nan
63556;BME280;49700;48.072;7.800;2023-04-23T13:04:53;98430.13;;;23.62;nan
63556;BME280;49700;48.072;7.800;2023-04-23T13:11:37;98425.19;;;23.59;nan
63556;BME280;49700;48.072;7.800;2023-04-23T13:14:54;98418.81;;;23.60;nan
63556;BME280;49700;48.072;7.800;2023-04-23T13:17:51;98417.56;;;23.56;nan
63556;BME280;49700;48.072;7.800;2023-04-23T13:20:27;98402.53;;;23.49;nan
63556;BME280;49700;48.072;7.800;2023-04-23T13:23:16;98405.66;;;23.46;nan
63556;BME280;49700;48.072;7.800;2023-04-23T13:25:49;98400.09;;;23.47;nan
63556;BME280;49700;48.072;7.800;2023-04-23T13:28:19;98398.63;;;23.51;nan
63556;BME280;49700;48.072;7.800;2023-04-23T13:30:45;98393.44;;;23.56;nan
63556;BME280;49700;48.072;7.800;2023-04-23T13:33:18;98387.03;;;23.64;nan
63556;BME280;49700;48.072;7.800;2023-04-23T13:35:47;98381.06;;;23.69;nan
63556;BME280;49700;48.072;7.800;2023-04-23T13:38:24;98377.75;;;23.73;nan
63556;BME280;49700;48.072;7.800;2023-04-23T13:40:50;98366.19;;;23.79;nan
63556;BME280;49700;48.072;7.800;2023-04-23T13:43:16;98358.97;;;23.80;nan
63556;BME280;49700;48.072;7.800;2023-04-23T13:45:41;98349.25;;;23.79;nan
63556;BME280;49700;48.072;7.800;2023-04-23T13:50:33;98346.41;;;23.74;nan
63556;BME280;49700;48.072;7.800;2023-04-23T13:53:08;98338.13;;;23.75;nan
63556;BME280;49700;48.072;7.800;2023-04-23T13:55:49;98335.25;;;23.77;nan
63556;BME280;49700;48.072;7.800;2023-04-23T13:58:49;98334.03;;;23.73;nan
63556;BME280;49700;48.072;7.800;2023-04-23T14:01:38;98339.19;;;23.68;nan
63556;BME280;49700;48.072;7.800;2023-04-23T14:04:14;98348.94;;;23.55;nan
63556;BME280;49700;48.072;7.800;2023-04-23T14:07:03;98339.88;;;23.43;nan
63556;BME280;49700;48.072;7.800;2023-04-23T14:09:41;98336.81;;;23.33;nan
63556;BME280;49700;48.072;7.800;2023-04-23T14:12:38;98338.53;;;23.21;nan
63556;BME280;49700;48.072;7.800;2023-04-23T14:15:43;98340.19;;;23.15;nan
63556;BME280;49700;48.072;7.800;2023-04-23T14:18:49;98333.38;;;23.12;nan
63556;BME280;49700;48.072;7.800;2023-04-23T14:21:37;98330.94;;;23.04;nan
63556;BME280;49700;48.072;7.800;2023-04-23T14:24:34;98323.28;;;22.94;nan
63556;BME280;49700;48.072;7.800;2023-04-23T14:27:38;98336.28;;;22.78;nan
63556;BME280;49700;48.072;7.800;2023-04-23T14:30:33;98356.47;;;22.60;nan
63556;BME280;49700;48.072;7.800;2023-04-23T14:34:00;98389.53;;;22.19;nan
63556;BME280;49700;48.072;7.800;2023-04-23T14:37:11;98407.34;;;21.23;nan
63556;BME280;49700;48.072;7.800;2023-04-23T14:40:06;98408.63;;;20.34;nan
63556;BME280;49700;48.072;7.800;2023-04-23T14:43:15;98419.59;;;19.58;nan
63556;BME280;49700;48.072;7.800;2023-04-23T14:46:01;98421.69;;;19.18;nan
63556;BME280;49700;48.072;7.800;2023-04-23T14:49:00;98422.97;;;18.85;nan
63556;BME280;49700;48.072;7.800;2023-04-23T14:51:43;98397.94;;;18.56;nan
63556;BME280;49700;48.072;7.800;2023-04-23T14:54:32;98402.00;;;18.44;nan
63556;BME280;49700;48.072;7.800;2023-04-23T14:56:57;98394.38;;;18.41;nan
63556;BME280;49700;48.072;7.800;2023-04-23T14:59:27;98382.69;;;18.50;nan
63556;BME280;49700;48.072;7.800;2023-04-23T15:02:03;98383.25;;;18.60;nan
63556;BME280;49700;48.072;7.800;2023-04-23T15:04:36;98388.34;;;18.70;nan
63556;BME280;49700;48.072;7.800;2023-04-23T15:07:22;98395.09;;;18.81;nan
63556;BME280;49700;48.072;7.800;2023-04-23T15:10:13;98392.00;;;18.92;nan
63556;BME280;49700;48.072;7.800;2023-04-23T15:19:28;98416.81;;;19.07;nan
63556;BME280;49700;48.072;7.800;2023-04-23T15:22:29;98398.25;;;19.14;nan
63556;BME280;49700;48.072;7.800;2023-04-23T15:25:25;98407.19;;;19.21;nan
63556;BME280;49700;48.072;7.800;2023-04-23T15:28:17;98410.22;;;19.33;nan
63556;BME280;49700;48.072;7.800;2023-04-23T15:31:32;98402.78;;;19.43;nan
63556;BME280;49700;48.072;7.800;2023-04-23T15:34:30;98393.31;;;19.40;nan
63556;BME280;49700;48.072;7.800;2023-04-23T15:37:34;98407.81;;;19.38;nan
63556;BME280;49700;48.072;7.800;2023-04-23T15:40:32;98401.56;;;19.31;nan
63556;BME280;49700;48.072;7.800;2023-04-23T15:43:20;98403.13;;;19.25;nan
63556;BME280;49700;48.072;7.800;2023-04-23T15:50:12;98400.47;;;19.10;nan
63556;BME280;49700;48.072;7.800;2023-04-23T15:53:14;98409.19;;;19.04;nan
63556;BME280;49700;48.072;7.800;2023-04-23T15:56:34;98413.56;;;18.97;nan
63556;BME280;49700;48.072;7.800;2023-04-23T15:59:41;98417.25;;;18.96;nan
63556;BME280;49700;48.072;7.800;2023-04-23T16:02:33;98416.59;;;18.94;nan
63556;BME280;49700;48.072;7.800;2023-04-23T16:05:32;98416.75;;;18.92;nan
63556;BME280;49700;48.072;7.800;2023-04-23T16:08:29;98421.63;;;18.89;nan
63556;BME280;49700;48.072;7.800;2023-04-23T16:11:21;98422.16;;;18.84;nan
63556;BME280;49700;48.072;7.800;2023-04-23T16:14:31;98425.38;;;18.79;nan
63556;BME280;49700;48.072;7.800;2023-04-23T16:17:40;98420.06;;;18.79;nan
63556;BME280;49700;48.072;7.800;2023-04-23T16:20:47;98425.81;;;18.83;nan
63556;BME280;49700;48.072;7.800;2023-04-23T16:23:53;98422.16;;;18.84;nan
63556;BME280;49700;48.072;7.800;2023-04-23T16:26:29;98420.97;;;18.87;nan
63556;BME280;49700;48.072;7.800;2023-04-23T16:29:45;98413.63;;;18.89;nan
63556;BME280;49700;48.072;7.800;2023-04-23T16:32:30;98420.59;;;18.90;nan
63556;BME280;49700;48.072;7.800;2023-04-23T16:35:06;98412.25;;;18.93;nan
63556;BME280;49700;48.072;7.800;2023-04-23T16:38:02;98411.63;;;18.91;nan
63556;BME280;49700;48.072;7.800;2023-04-23T16:59:57;98418.50;;;18.85;nan
63556;BME280;49700;48.072;7.800;2023-04-23T17:03:11;98428.66;;;18.82;nan
63556;BME280;49700;48.072;7.800;2023-04-23T17:14:02;98424.75;;;18.69;nan
63556;BME280;49700;48.072;7.800;2023-04-23T17:17:28;98423.06;;;18.68;nan
63556;BME280;49700;48.072;7.800;2023-04-23T17:24:45;98420.41;;;18.68;nan
63556;BME280;49700;48.072;7.800;2023-04-23T17:27:36;98433.72;;;18.68;nan
63556;BME280;49700;48.072;7.800;2023-04-23T17:30:44;98462.34;;;18.66;nan
63556;BME280;49700;48.072;7.800;2023-04-23T17:38:20;98560.03;;;18.02;nan
63556;BME280;49700;48.072;7.800;2023-04-23T17:41:48;98564.09;;;17.16;nan
63556;BME280;49700;48.072;7.800;2023-04-23T17:45:00;98551.34;;;16.52;nan
63556;BME280;49700;48.072;7.800;2023-04-23T17:51:33;98584.44;;;15.72;nan
63556;BME280;49700;48.072;7.800;2023-04-23T17:54:41;98586.75;;;15.57;nan
63556;BME280;49700;48.072;7.800;2023-04-23T17:58:05;98585.66;;;15.41;nan
63556;BME280;49700;48.072;7.800;2023-04-23T18:01:23;98581.75;;;15.27;nan
63556;BME280;49700;48.072;7.800;2023-04-23T18:04:23;98580.03;;;15.18;nan
63556;BME280;49700;48.072;7.800;2023-04-23T18:07:13;98615.03;;;15.12;nan
63556;BME280;49700;48.072;7.800;2023-04-23T18:10:38;98627.56;;;15.10;nan
63556;BME280;49700;48.072;7.800;2023-04-23T18:14:00;98624.91;;;15.10;nan
63556;BME280;49700;48.072;7.800;2023-04-23T18:17:24;98630.88;;;15.12;nan
63556;BME280;49700;48.072;7.800;2023-04-23T18:20:19;98634.06;;;15.16;nan
63556;BME280;49700;48.072;7.800;2023-04-23T18:24:03;98639.72;;;15.21;nan
63556;BME280;49700;48.072;7.800;2023-04-23T18:30:38;98646.75;;;15.12;nan
63556;BME280;49700;48.072;7.800;2023-04-23T18:36:32;98648.25;;;15.15;nan
63556;BME280;49700;48.072;7.800;2023-04-23T18:39:28;98649.31;;;15.22;nan
63556;BME280;49700;48.072;7.800;2023-04-23T18:46:00;98639.63;;;15.31;nan
63556;BME280;49700;48.072;7.800;2023-04-23T18:51:03;98633.88;;;15.17;nan
63556;BME280;49700;48.072;7.800;2023-04-23T18:53:34;98627.63;;;15.18;nan
63556;BME280;49700;48.072;7.800;2023-04-23T18:59:30;98629.16;;;15.21;nan
63556;BME280;49700;48.072;7.800;2023-04-23T19:02:23;98631.63;;;15.22;nan
63556;BME280;49700;48.072;7.800;2023-04-23T19:05:25;98623.63;;;15.14;nan
63556;BME280;49700;48.072;7.800;2023-04-23T19:08:21;98619.25;;;15.05;nan
63556;BME280;49700;48.072;7.800;2023-04-23T19:11:07;98612.06;;;14.97;nan
63556;BME280;49700;48.072;7.800;2023-04-23T19:13:43;98615.13;;;14.93;nan
63556;BME280;49700;48.072;7.800;2023-04-23T19:16:32;98624.38;;;14.89;nan